Decoded Metar for KSKF (SAN ANTONIO in TX, USA) (IATA:SKF) | Meteo·Mobile Aviation Weather
aviador You're here:

KSKF Decoded Metar

SAN ANTONIO in TX, USA
Report Time2018-09-23 19:41:00
UTC Time2018-09-23 19:58:00
Flight Rules vfr VFR
WindCalm
Visibility9999 m
Phenomena:N/A
Clouds:Broken 031 Hf
Expected CloudBase > 2,000 ft AGL from Temp-Dew spread
Ceiling3,100 ft
Temp25°C (ISA +11)
Dew Point20°C (74% RH)
QNH1013 hPa
Density Alt2,316 ft
Elevation689 ft
Report Wrong Elevation
Raw Report
KSKF 231941Z AUTO 00000KT 10SM BKN031 25/20 A2990 RMK AO2 VIS 2
3/4 RWY16 SLP119 $=

Extra information for KSKF:More info

Metar Taf Metar & Taf Last 4 Metars F.Rules Stats Wind Profile Meteogram Temp Stats Airport Information Weather charts Add Link Nearby VenuesMetar ALERT Operation Metar Decoded Social comments

AIRNAV info for KSKF